Time;durP1;ratioP1;P1;durP2;ratioP2;P2;SDS_P1;SDS_P2;PMS_P1;PMS_P2;Temp;Humidity;BMP_temperature;BMP_pressure;BME280_temperature;BME280_humidity;BME280_pressure;Samples;Min_cycle;Max_cycle;Signal;HPM_P1;HPM_P2
2022/04/19 00:00:44;;;;;;;5.75;3.00;;;8.30;93.70;;;;;;5065714;28;20219;-65
2022/04/19 00:03:11;;;;;;;3.35;3.05;;;8.40;93.90;;;;;;5069180;28;20295;-65
2022/04/19 00:05:38;;;;;;;2.75;2.55;;;8.20;94.00;;;;;;5070566;28;20366;-64
2022/04/19 00:08:05;;;;;;;4.05;3.00;;;8.50;94.20;;;;;;5069518;28;20177;-65
2022/04/19 00:10:31;;;;;;;3.05;2.85;;;8.40;94.10;;;;;;5067668;28;21051;-65
2022/04/19 00:12:58;;;;;;;3.30;3.00;;;8.30;94.00;;;;;;5068431;28;20213;-65
2022/04/19 00:15:29;;;;;;;3.95;3.63;;;8.10;94.20;;;;;;5064235;28;20189;-65
2022/04/19 00:17:58;;;;;;;3.10;2.80;;;7.90;94.20;;;;;;5067296;28;20673;-65
2022/04/19 00:20:25;;;;;;;3.47;3.17;;;8.00;94.50;;;;;;5069300;28;20182;-65
2022/04/19 00:22:52;;;;;;;3.50;3.20;;;8.10;94.50;;;;;;5069082;28;20181;-65
2022/04/19 00:25:19;;;;;;;3.67;3.00;;;8.10;94.80;;;;;;5065924;28;20715;-65
2022/04/19 00:27:45;;;;;;;3.33;2.72;;;8.10;94.70;;;;;;5070301;28;20185;-65
2022/04/19 00:30:12;;;;;;;4.40;3.20;;;8.10;94.90;;;;;;5066998;28;20220;-65
2022/04/19 00:32:38;;;;;;;4.22;3.10;;;8.10;94.90;;;;;;5066162;28;20189;-65
2022/04/19 00:35:05;;;;;;;6.30;3.30;;;7.90;95.10;;;;;;5070450;28;20191;-65
2022/04/19 00:37:33;;;;;;;2.80;2.60;;;7.90;95.10;;;;;;5068006;28;20704;-65
2022/04/19 00:40:00;;;;;;;2.90;2.70;;;8.30;95.20;;;;;;5067666;28;20281;-65
2022/04/19 00:42:28;;;;;;;4.88;3.05;;;7.80;95.50;;;;;;5067842;28;20580;-65
2022/04/19 00:44:55;;;;;;;4.95;3.20;;;8.10;96.00;;;;;;5068758;28;20241;-65
2022/04/19 00:47:21;;;;;;;3.92;2.85;;;7.70;95.70;;;;;;5068124;28;20268;-65
2022/04/19 00:49:47;;;;;;;3.30;2.90;;;7.50;95.70;;;;;;5068591;28;20293;-65
2022/04/19 00:52:13;;;;;;;3.30;2.93;;;7.80;95.90;;;;;;5065324;28;20177;-65
2022/04/19 00:54:40;;;;;;;3.20;2.90;;;7.80;95.80;;;;;;5069456;28;20979;-65
2022/04/19 00:57:06;;;;;;;3.70;2.72;;;7.80;95.80;;;;;;5067696;28;20219;-65
2022/04/19 00:59:33;;;;;;;3.70;3.23;;;7.70;95.90;;;;;;5069648;28;20201;-64
2022/04/19 01:01:59;;;;;;;3.53;3.25;;;7.60;96.20;;;;;;5064824;28;20267;-65
2022/04/19 01:04:25;;;;;;;3.27;2.97;;;7.50;96.40;;;;;;5069949;28;20289;-65
2022/04/19 01:06:50;;;;;;;3.67;3.23;;;7.40;96.20;;;;;;5069469;28;20434;-65
2022/04/19 01:09:16;;;;;;;4.07;2.90;;;7.30;96.40;;;;;;5066628;28;20257;-65
2022/04/19 01:14:28;;;;;;;2.92;2.60;;;7.20;96.20;;;;;;5065785;28;20316;-65
2022/04/19 01:16:54;;;;;;;3.55;3.20;;;7.40;96.80;;;;;;5061192;28;20181;-65
2022/04/19 01:19:21;;;;;;;3.40;2.55;;;7.20;96.80;;;;;;5064882;28;20609;-64
2022/04/19 01:21:48;;;;;;;3.33;3.03;;;6.70;96.80;;;;;;5063764;28;20196;-65
2022/04/19 01:24:15;;;;;;;3.65;3.13;;;7.20;97.00;;;;;;5067691;28;20288;-65
2022/04/19 01:26:41;;;;;;;5.05;2.85;;;7.20;97.20;;;;;;5069489;28;20238;-65
2022/04/19 01:29:09;;;;;;;5.90;2.60;;;7.30;97.30;;;;;;5066348;28;20205;-65
2022/04/19 01:31:34;;;;;;;2.85;2.65;;;7.20;97.50;;;;;;5067550;28;20245;-65
2022/04/19 01:34:01;;;;;;;3.73;2.80;;;7.30;97.50;;;;;;5067884;28;20209;-65
2022/04/19 01:36:26;;;;;;;3.28;2.97;;;7.00;97.30;;;;;;5068408;28;20537;-65
2022/04/19 01:38:52;;;;;;;4.00;3.60;;;7.20;97.60;;;;;;5066875;28;20208;-65
2022/04/19 01:41:17;;;;;;;3.60;2.90;;;7.00;97.70;;;;;;5064859;28;20181;-65
2022/04/19 01:43:44;;;;;;;3.60;3.30;;;7.10;98.20;;;;;;5068238;28;20209;-65
2022/04/19 01:46:10;;;;;;;3.75;2.80;;;6.80;98.20;;;;;;5064367;28;20188;-65
2022/04/19 01:48:35;;;;;;;3.23;2.77;;;7.50;98.20;;;;;;5067470;28;20185;-65
2022/04/19 01:51:01;;;;;;;3.50;2.70;;;7.10;98.10;;;;;;5068344;28;20235;-65
2022/04/19 01:53:27;;;;;;;3.30;3.00;;;6.90;97.80;;;;;;5064273;28;20209;-65
2022/04/19 01:55:52;;;;;;;2.90;2.70;;;7.00;97.80;;;;;;5056579;28;20182;-65
2022/04/19 01:58:18;;;;;;;4.20;2.83;;;7.20;97.80;;;;;;5067481;28;20275;-65
2022/04/19 02:00:44;;;;;;;3.03;2.70;;;7.20;97.80;;;;;;5062282;28;20438;-65
2022/04/19 02:03:09;;;;;;;3.70;2.90;;;6.90;97.60;;;;;;5067087;28;20681;-65
2022/04/19 02:05:35;;;;;;;3.30;2.60;;;6.80;97.60;;;;;;5063242;28;20185;-65
2022/04/19 02:08:00;;;;;;;3.37;2.90;;;6.90;97.60;;;;;;5068346;28;20220;-65
2022/04/19 02:10:26;;;;;;;2.70;2.50;;;6.50;97.30;;;;;;5063313;28;20209;-65
2022/04/19 02:12:52;;;;;;;3.30;3.00;;;6.80;97.10;;;;;;5068600;28;20185;-65
2022/04/19 02:15:18;;;;;;;3.47;3.03;;;7.00;97.70;;;;;;5061008;28;20177;-65
2022/04/19 02:17:50;;;;;;;3.10;2.90;;;6.80;97.70;;;;;;5066613;28;20427;-63
2022/04/19 02:20:18;;;;;;;4.22;2.90;;;6.90;97.90;;;;;;5064847;28;20980;-63
2022/04/19 02:22:45;;;;;;;3.00;2.70;;;6.90;97.90;;;;;;5070505;28;20661;-63
2022/04/19 02:25:11;;;;;;;3.78;3.10;;;6.90;97.80;;;;;;5069682;28;20649;-64
2022/04/19 02:27:39;;;;;;;3.33;3.03;;;6.90;97.90;;;;;;5072577;28;20467;-63
2022/04/19 02:30:06;;;;;;;3.63;2.35;;;6.30;97.70;;;;;;5072175;28;20306;-64
2022/04/19 02:32:33;;;;;;;3.40;3.10;;;6.70;97.80;;;;;;5068678;28;20230;-64
2022/04/19 02:34:59;;;;;;;2.72;2.53;;;6.70;98.00;;;;;;5071987;28;20201;-64
2022/04/19 02:37:25;;;;;;;3.30;2.97;;;7.10;98.40;;;;;;5071363;28;20245;-64
2022/04/19 02:39:50;;;;;;;2.50;2.30;;;6.80;98.20;;;;;;5070011;28;20254;-66
2022/04/19 02:42:17;;;;;;;3.00;2.70;;;6.60;98.40;;;;;;5070403;28;20195;-63
2022/04/19 02:44:43;;;;;;;3.60;3.20;;;6.60;98.60;;;;;;5071676;28;20209;-63
2022/04/19 02:47:09;;;;;;;3.70;2.93;;;6.60;98.60;;;;;;5066075;28;20207;-63
2022/04/19 02:49:36;;;;;;;3.38;3.08;;;6.80;98.70;;;;;;5072044;28;20498;-63
2022/04/19 02:52:03;;;;;;;4.20;3.25;;;6.50;98.60;;;;;;5070494;28;20252;-63
2022/04/19 02:54:28;;;;;;;3.33;2.95;;;6.50;99.00;;;;;;5064107;28;20671;-63
2022/04/19 02:56:54;;;;;;;4.33;3.30;;;6.30;98.80;;;;;;5070644;28;20187;-63
2022/04/19 02:59:19;;;;;;;3.43;3.00;;;6.90;99.50;;;;;;5070786;28;20550;-63
2022/04/19 03:01:45;;;;;;;3.20;2.90;;;6.30;99.10;;;;;;5069291;28;20181;-63
2022/04/19 03:04:10;;;;;;;4.83;3.10;;;6.40;99.20;;;;;;5070412;28;20244;-64
2022/04/19 03:06:36;;;;;;;3.50;3.00;;;5.80;99.20;;;;;;5072118;28;20188;-63
2022/04/19 03:09:02;;;;;;;3.20;2.93;;;6.20;99.60;;;;;;5071593;28;20270;-64
2022/04/19 03:11:28;;;;;;;3.25;2.80;;;6.40;99.90;;;;;;5068996;28;20251;-63
2022/04/19 03:13:55;;;;;;;4.00;3.33;;;6.40;99.90;;;;;;5069209;28;20197;-64
2022/04/19 03:16:20;;;;;;;2.45;2.25;;;6.30;99.70;;;;;;5070403;28;20775;-64
2022/04/19 03:18:47;;;;;;;4.40;3.10;;;5.60;99.20;;;;;;5068774;28;20237;-63
2022/04/19 03:21:13;;;;;;;4.43;3.53;;;6.10;99.50;;;;;;5063255;28;20977;-64
2022/04/19 03:29:09;;;;;;;3.53;2.85;;;6.10;99.40;;;;;;5070357;28;20282;-63
2022/04/19 03:31:35;;;;;;;3.47;3.17;;;6.50;99.60;;;;;;5071116;28;20632;-63
2022/04/19 03:34:01;;;;;;;2.90;2.70;;;6.30;99.90;;;;;;5065534;28;20287;-63
2022/04/19 03:36:27;;;;;;;3.90;3.60;;;6.10;99.90;;;;;;5068209;28;20435;-64
2022/04/19 03:38:55;;;;;;;3.83;3.53;;;6.00;99.90;;;;;;5070887;28;20200;-63
2022/04/19 03:41:21;;;;;;;2.88;2.63;;;6.00;99.90;;;;;;5066822;28;20245;-64
2022/04/19 03:43:47;;;;;;;3.03;2.83;;;5.50;99.90;;;;;;5063842;28;20215;-63
2022/04/19 03:46:12;;;;;;;2.78;2.58;;;5.90;99.90;;;;;;5068920;28;20442;-64
2022/04/19 03:48:38;;;;;;;3.33;3.03;;;6.00;99.90;;;;;;5071498;28;20188;-64
2022/04/19 03:51:04;;;;;;;3.00;2.80;;;5.90;99.90;;;;;;5070678;28;20223;-64
2022/04/19 03:53:33;;;;;;;3.47;2.97;;;5.80;99.90;;;;;;5067889;28;20200;-64
2022/04/19 03:55:59;;;;;;;3.55;3.25;;;5.80;99.90;;;;;;5070058;28;20537;-64
2022/04/19 03:58:27;;;;;;;3.40;3.10;;;6.10;99.90;;;;;;5068065;28;20275;-64
2022/04/19 04:00:54;;;;;;;5.40;3.00;;;6.00;99.90;;;;;;5067167;28;20503;-64
2022/04/19 04:03:20;;;;;;;3.22;2.90;;;5.80;99.90;;;;;;5070008;28;20287;-63
2022/04/19 04:05:45;;;;;;;3.55;3.05;;;6.10;99.90;;;;;;5071265;28;20226;-63
2022/04/19 04:08:11;;;;;;;2.80;2.60;;;5.60;99.90;;;;;;5082251;28;20613;-64
2022/04/19 04:10:37;;;;;;;4.10;3.30;;;5.20;99.90;;;;;;5063633;28;20229;-64
2022/04/19 04:13:04;;;;;;;3.23;2.93;;;5.80;99.90;;;;;;5069944;28;20239;-64
2022/04/19 04:15:29;;;;;;;3.72;2.97;;;6.00;99.90;;;;;;5069893;28;20276;-63
2022/04/19 04:17:55;;;;;;;3.23;2.93;;;5.90;99.90;;;;;;5063225;28;20621;-64
2022/04/19 04:20:20;;;;;;;4.30;3.40;;;5.90;99.90;;;;;;5069410;28;20696;-63
2022/04/19 04:22:46;;;;;;;4.10;3.57;;;5.90;99.90;;;;;;5068256;28;20249;-63
2022/04/19 04:25:11;;;;;;;4.57;3.07;;;5.80;99.90;;;;;;5066309;28;20705;-64
2022/04/19 04:27:37;;;;;;;4.03;3.33;;;5.90;99.90;;;;;;5067117;28;20217;-63
2022/04/19 04:30:03;;;;;;;3.80;3.40;;;6.10;99.90;;;;;;5069759;28;20255;-63
2022/04/19 04:32:29;;;;;;;4.30;3.30;;;5.90;99.90;;;;;;5063905;28;20177;-64
2022/04/19 04:34:54;;;;;;;4.90;3.60;;;5.30;99.90;;;;;;5068999;28;20649;-63
2022/04/19 04:37:20;;;;;;;3.47;2.83;;;5.80;99.90;;;;;;5065678;28;20180;-63
2022/04/19 04:39:46;;;;;;;4.90;3.75;;;5.50;99.90;;;;;;5062441;28;20672;-64
2022/04/19 04:42:11;;;;;;;3.57;3.23;;;5.90;99.90;;;;;;5066019;28;20202;-64
2022/04/19 04:44:37;;;;;;;4.17;3.27;;;5.90;99.90;;;;;;5067544;28;20234;-65
2022/04/19 04:49:47;;;;;;;4.40;3.38;;;6.10;99.90;;;;;;5067492;28;20221;-64
2022/04/19 04:52:14;;;;;;;4.37;3.33;;;5.70;99.90;;;;;;5067294;28;20184;-64
2022/04/19 04:54:41;;;;;;;4.40;3.75;;;5.80;99.90;;;;;;5067839;28;20209;-64
2022/04/19 04:57:08;;;;;;;3.70;3.25;;;6.50;99.90;;;;;;5085137;28;20275;-64
2022/04/19 04:59:35;;;;;;;4.60;3.40;;;6.00;99.90;;;;;;5070347;28;20243;-64
2022/04/19 05:02:01;;;;;;;4.03;3.22;;;5.90;99.90;;;;;;5065762;28;20195;-61
2022/04/19 05:04:27;;;;;;;3.60;3.15;;;6.10;99.90;;;;;;5066203;28;20266;-61
2022/04/19 05:06:52;;;;;;;3.63;3.33;;;5.80;99.90;;;;;;5065051;28;20611;-61
2022/04/19 05:09:18;;;;;;;5.40;3.50;;;6.00;99.90;;;;;;5067861;28;20746;-61
2022/04/19 05:11:47;;;;;;;4.30;3.80;;;6.20;99.90;;;;;;5064264;28;20191;-62
2022/04/19 05:14:13;;;;;;;5.32;3.55;;;6.00;99.90;;;;;;5066476;28;20540;-62
2022/04/19 05:16:39;;;;;;;3.85;3.15;;;6.30;99.90;;;;;;5065727;28;20183;-62
2022/04/19 05:19:05;;;;;;;5.90;4.20;;;6.70;99.90;;;;;;5066656;28;20234;-62
2022/04/19 05:21:31;;;;;;;6.30;4.97;;;6.40;99.90;;;;;;5069164;28;20427;-63
2022/04/19 05:23:57;;;;;;;7.50;5.35;;;6.10;99.90;;;;;;5066765;28;20248;-63
2022/04/19 05:26:24;;;;;;;8.37;4.10;;;6.40;99.90;;;;;;5066085;28;20538;-62
2022/04/19 05:28:50;;;;;;;3.67;3.38;;;6.00;99.80;;;;;;5058314;28;20834;-62
2022/04/19 05:31:16;;;;;;;5.53;3.93;;;6.40;99.80;;;;;;5066331;28;20216;-62
2022/04/19 05:33:41;;;;;;;5.27;4.17;;;6.90;99.60;;;;;;5067516;28;20791;-62
2022/04/19 05:36:07;;;;;;;4.10;3.73;;;6.60;99.30;;;;;;5064726;28;20455;-62
2022/04/19 05:38:33;;;;;;;5.13;4.33;;;6.80;99.50;;;;;;5067807;28;20586;-62
2022/04/19 05:40:58;;;;;;;4.50;3.73;;;6.90;99.10;;;;;;5063842;28;20769;-62
2022/04/19 05:43:25;;;;;;;5.17;3.93;;;7.00;99.20;;;;;;5066487;28;20211;-62
2022/04/19 05:45:50;;;;;;;4.50;4.10;;;7.00;98.90;;;;;;5064186;28;20702;-62
2022/04/19 05:48:16;;;;;;;75.20;63.80;;;7.00;98.30;;;;;;5065298;28;20252;-62
2022/04/19 05:50:41;;;;;;;5.63;4.03;;;7.00;98.10;;;;;;5062473;28;20213;-62
2022/04/19 05:53:07;;;;;;;5.20;4.70;;;7.30;97.90;;;;;;5068931;28;20216;-62
2022/04/19 05:55:32;;;;;;;6.10;4.10;;;7.30;97.80;;;;;;5069163;28;20173;-62
2022/04/19 05:57:59;;;;;;;5.13;4.23;;;7.40;97.50;;;;;;5069477;28;20192;-63
2022/04/19 06:00:24;;;;;;;4.20;3.80;;;7.70;97.30;;;;;;5070074;28;20581;-63
2022/04/19 06:05:35;;;;;;;5.32;4.28;;;8.00;96.20;;;;;;5068558;28;20541;-63
2022/04/19 06:08:01;;;;;;;5.10;3.83;;;8.20;95.50;;;;;;5069647;28;20181;-62
2022/04/19 06:10:27;;;;;;;5.28;4.78;;;8.40;95.00;;;;;;5069563;28;20200;-63
2022/04/19 06:12:53;;;;;;;9.90;4.33;;;8.70;94.50;;;;;;5070863;28;20274;-63
2022/04/19 06:15:18;;;;;;;4.63;3.93;;;9.10;94.10;;;;;;5071268;28;20953;-63
2022/04/19 06:17:44;;;;;;;6.07;4.87;;;9.00;93.70;;;;;;5069577;28;20758;-63
2022/04/19 06:20:10;;;;;;;4.63;4.20;;;9.10;93.50;;;;;;5071581;28;20182;-63
2022/04/19 06:22:36;;;;;;;5.83;4.20;;;9.40;93.60;;;;;;5070295;28;20196;-63
2022/04/19 06:25:03;;;;;;;6.17;4.50;;;9.50;93.30;;;;;;5070258;28;20488;-63
2022/04/19 06:27:28;;;;;;;5.05;4.55;;;10.10;92.20;;;;;;5067533;28;20191;-64
2022/04/19 06:29:57;;;;;;;5.77;4.23;;;10.80;91.00;;;;;;5080428;28;20553;-65
2022/04/19 06:32:22;;;;;;;5.07;4.55;;;11.00;89.80;;;;;;5068636;28;20261;-62
2022/04/19 06:34:49;;;;;;;5.63;4.80;;;11.10;88.10;;;;;;5071339;28;20298;-61
2022/04/19 06:37:14;;;;;;;10.25;6.15;;;11.40;88.00;;;;;;5067518;28;20695;-61
2022/04/19 06:39:41;;;;;;;6.60;5.53;;;11.30;85.80;;;;;;5069132;28;20196;-61
2022/04/19 06:42:07;;;;;;;5.20;4.70;;;11.60;86.20;;;;;;5071125;28;20816;-60
2022/04/19 06:44:33;;;;;;;6.13;4.90;;;12.10;84.50;;;;;;5070251;28;20207;-61
2022/04/19 06:46:59;;;;;;;5.50;5.00;;;12.40;82.70;;;;;;5065089;28;20189;-66
2022/04/19 06:49:25;;;;;;;4.50;4.10;;;13.00;80.80;;;;;;5067861;28;20212;-67
2022/04/19 06:51:50;;;;;;;5.93;5.33;;;14.10;78.10;;;;;;5067763;28;20267;-69
2022/04/19 06:54:16;;;;;;;4.93;4.37;;;16.00;72.40;;;;;;5070305;28;20249;-73
2022/04/19 06:56:42;;;;;;;4.63;4.23;;;16.80;66.90;;;;;;5067940;28;20274;-69
2022/04/19 06:59:08;;;;;;;5.87;4.63;;;17.40;63.70;;;;;;5070828;28;20188;-64
2022/04/19 07:01:35;;;;;;;5.50;4.90;;;18.30;61.10;;;;;;5069316;28;20447;-69
2022/04/19 07:04:01;;;;;;;4.95;4.40;;;19.70;56.80;;;;;;5065055;28;20535;-69
2022/04/19 07:06:27;;;;;;;6.27;4.70;;;20.70;53.90;;;;;;5068095;28;20177;-70
2022/04/19 07:08:52;;;;;;;8.70;4.97;;;21.50;52.10;;;;;;5070869;28;20857;-66
2022/04/19 07:11:18;;;;;;;5.47;4.63;;;20.10;51.50;;;;;;5064160;28;20307;-68
2022/04/19 07:13:44;;;;;;;8.00;5.50;;;18.20;54.10;;;;;;5068995;28;20661;-69
2022/04/19 07:16:09;;;;;;;8.30;5.20;;;18.40;55.70;;;;;;5066123;28;20185;-66
2022/04/19 07:18:35;;;;;;;7.00;6.07;;;20.40;53.10;;;;;;5069456;28;20270;-68
2022/04/19 07:26:38;;;;;;;5.90;5.40;;;22.80;46.30;;;;;;5060730;28;20480;-66
2022/04/19 07:29:05;;;;;;;6.73;6.13;;;24.20;45.40;;;;;;5065367;28;20488;-66
2022/04/19 07:31:31;;;;;;;7.73;6.93;;;25.90;42.20;;;;;;5068455;28;20446;-66
2022/04/19 07:33:57;;;;;;;8.97;6.63;;;26.60;41.20;;;;;;5064732;28;20461;-68
2022/04/19 07:36:23;;;;;;;14.00;5.93;;;26.50;40.00;;;;;;5069061;28;20884;-69
2022/04/19 07:38:49;;;;;;;7.07;6.17;;;27.40;38.70;;;;;;5065183;28;20432;-67
2022/04/19 07:41:15;;;;;;;12.47;5.77;;;28.40;37.40;;;;;;5066476;28;20188;-69
2022/04/19 07:43:43;;;;;;;6.80;5.87;;;28.90;35.10;;;;;;5065887;28;20283;-68
2022/04/19 07:46:10;;;;;;;7.93;7.13;;;29.20;34.50;;;;;;5062032;28;20445;-67
2022/04/19 07:48:36;;;;;;;11.90;7.53;;;28.50;34.40;;;;;;5066932;28;20544;-67
2022/04/19 07:51:02;;;;;;;8.70;6.57;;;28.50;34.40;;;;;;5069086;28;20475;-67
2022/04/19 07:53:27;;;;;;;9.50;6.23;;;28.20;34.90;;;;;;5067684;28;20462;-66
2022/04/19 07:55:55;;;;;;;12.43;6.90;;;27.40;34.80;;;;;;5067462;28;20187;-67
2022/04/19 07:58:21;;;;;;;12.80;6.57;;;27.40;35.30;;;;;;5067636;28;20227;-67
2022/04/19 08:00:46;;;;;;;6.33;5.70;;;28.80;34.00;;;;;;5071385;28;20512;-67
2022/04/19 08:03:12;;;;;;;7.10;6.40;;;28.40;33.30;;;;;;5068597;28;20222;-67
2022/04/19 08:05:39;;;;;;;10.87;6.37;;;28.90;33.10;;;;;;5068134;28;20189;-67
2022/04/19 08:08:05;;;;;;;8.83;6.87;;;29.40;32.40;;;;;;5070957;28;20248;-68
2022/04/19 08:10:31;;;;;;;10.00;6.50;;;29.30;32.60;;;;;;5066934;28;20481;-68
2022/04/19 08:12:56;;;;;;;6.63;6.03;;;28.40;32.40;;;;;;5067788;28;20465;-68
2022/04/19 08:15:23;;;;;;;7.10;6.43;;;28.80;32.20;;;;;;5069900;28;20184;-67
2022/04/19 08:17:49;;;;;;;7.60;6.07;;;28.60;31.90;;;;;;5067706;28;20897;-67
2022/04/19 08:20:15;;;;;;;9.50;6.60;;;28.70;31.70;;;;;;5069099;28;20441;-67
2022/04/19 08:22:41;;;;;;;7.23;6.60;;;28.20;31.10;;;;;;5069246;28;20190;-67
2022/04/19 08:25:07;;;;;;;5.57;5.07;;;27.60;31.40;;;;;;5064742;28;20279;-68
2022/04/19 08:27:42;;;;;;;6.70;5.53;;;27.40;31.10;;;;;;5064521;28;20441;-68
2022/04/19 08:30:08;;;;;;;6.43;5.83;;;25.40;30.80;;;;;;5067050;28;20465;-68
2022/04/19 08:32:35;;;;;;;6.60;5.57;;;24.60;33.90;;;;;;5066772;28;20450;-67
2022/04/19 08:35:00;;;;;;;5.47;4.97;;;26.00;32.90;;;;;;5068974;28;20833;-68
2022/04/19 08:37:30;;;;;;;8.17;4.67;;;27.30;31.60;;;;;;5068353;28;20449;-69
2022/04/19 08:39:59;;;;;;;6.43;4.97;;;28.00;30.00;;;;;;5063466;28;20234;-69
2022/04/19 08:42:25;;;;;;;5.40;4.80;;;29.40;29.30;;;;;;5069191;28;20507;-69
2022/04/19 08:44:50;;;;;;;5.67;4.90;;;28.50;29.00;;;;;;5069446;28;20450;-69
2022/04/19 08:47:17;;;;;;;5.23;4.80;;;27.90;29.50;;;;;;5066957;28;20300;-70
2022/04/19 08:49:44;;;;;;;4.97;4.50;;;27.40;30.40;;;;;;5061620;28;20213;-70
2022/04/19 08:52:10;;;;;;;5.80;4.30;;;27.80;29.60;;;;;;5067305;28;20809;-71
2022/04/19 08:57:29;;;;;;;4.47;4.13;;;30.10;28.20;;;;;;5060813;28;20443;-73
2022/04/19 08:59:55;;;;;;;5.23;4.83;;;30.70;27.40;;;;;;5068633;28;21126;-69
2022/04/19 09:02:23;;;;;;;5.93;4.60;;;29.60;27.90;;;;;;5063816;28;21826;-68
2022/04/19 09:04:50;;;;;;;4.20;3.80;;;29.10;28.50;;;;;;5067504;28;20212;-67
2022/04/19 09:07:16;;;;;;;5.03;3.93;;;29.20;27.70;;;;;;5059782;28;20477;-68
2022/04/19 09:09:42;;;;;;;4.60;4.20;;;29.40;27.60;;;;;;5068626;28;20478;-68
2022/04/19 09:12:10;;;;;;;3.30;3.00;;;29.00;27.90;;;;;;5056911;28;20440;-69
2022/04/19 09:14:53;;;;;;;7.83;7.03;;;28.10;27.60;;;;;;5068911;28;20200;-64
2022/04/19 09:17:18;;;;;;;5.00;4.20;;;26.90;29.00;;;;;;5059831;28;20925;-66
2022/04/19 09:19:44;;;;;;;4.30;3.90;;;27.20;30.20;;;;;;5068219;28;20498;-62
2022/04/19 09:22:10;;;;;;;4.80;4.30;;;27.80;30.00;;;;;;5068088;28;20185;-61
2022/04/19 09:24:35;;;;;;;5.53;4.93;;;28.30;29.60;;;;;;5061569;28;20693;-68
2022/04/19 09:27:01;;;;;;;4.83;4.43;;;28.90;29.30;;;;;;5069065;28;20449;-69
2022/04/19 09:29:27;;;;;;;5.40;4.20;;;28.00;29.60;;;;;;5065057;28;20219;-69
2022/04/19 09:31:58;;;;;;;4.20;3.80;;;27.80;29.80;;;;;;5064719;28;20190;-65
2022/04/19 09:34:31;;;;;;;4.17;3.70;;;28.10;29.50;;;;;;5066653;28;20465;-67
2022/04/19 09:37:11;;;;;;;5.20;4.13;;;28.10;29.20;;;;;;5069980;28;20431;-66
2022/04/19 09:39:42;;;;;;;4.57;4.17;;;27.80;29.00;;;;;;5068876;28;20992;-66
2022/04/19 09:42:15;;;;;;;4.50;4.07;;;27.90;28.70;;;;;;5067669;28;21363;-65
2022/04/19 09:44:49;;;;;;;4.63;3.60;;;27.60;28.60;;;;;;5069451;28;20507;-67
2022/04/19 09:47:15;;;;;;;6.07;4.50;;;27.20;29.60;;;;;;5064626;28;20468;-73
2022/04/19 09:49:52;;;;;;;3.67;3.37;;;27.80;29.30;;;;;;5068006;28;20473;-72
2022/04/19 09:52:23;;;;;;;4.53;3.83;;;27.60;29.00;;;;;;5069806;28;21112;-72
2022/04/19 09:55:05;;;;;;;3.70;3.40;;;27.10;28.90;;;;;;5068080;28;20522;-63
2022/04/19 09:57:33;;;;;;;4.03;3.70;;;27.70;29.10;;;;;;5066111;28;20448;-64
2022/04/19 09:59:59;;;;;;;6.40;4.10;;;27.70;28.90;;;;;;5067557;28;20535;-64
2022/04/19 10:08:18;;;;;;;3.70;3.10;;;26.60;28.40;;;;;;5069343;28;20453;-63
2022/04/19 10:10:45;;;;;;;5.40;4.23;;;25.50;28.80;;;;;;5066652;28;20462;-63
2022/04/19 10:13:10;;;;;;;3.73;3.43;;;24.90;30.40;;;;;;5070920;28;20875;-63
2022/04/19 10:15:37;;;;;;;3.70;3.20;;;24.90;31.00;;;;;;5070301;28;20495;-63
2022/04/19 10:18:06;;;;;;;4.50;4.10;;;24.90;30.50;;;;;;5071582;28;20187;-64
2022/04/19 10:20:36;;;;;;;3.90;3.50;;;24.50;30.10;;;;;;5067510;28;20452;-65
2022/04/19 10:23:10;;;;;;;4.53;3.40;;;23.50;30.80;;;;;;5059483;28;20666;-64
2022/04/19 10:25:47;;;;;;;4.10;3.47;;;23.70;30.70;;;;;;5067463;28;20811;-64
2022/04/19 10:28:15;;;;;;;3.43;3.13;;;23.70;30.50;;;;;;5071221;28;20792;-64
2022/04/19 10:30:51;;;;;;;3.77;3.47;;;23.70;30.70;;;;;;5065860;28;20543;-63
2022/04/19 10:33:39;;;;;;;4.83;3.20;;;23.20;31.20;;;;;;5065121;28;20503;-63
2022/04/19 10:36:23;;;;;;;3.80;3.43;;;22.90;31.00;;;;;;5067333;28;20427;-63
2022/04/19 10:39:11;;;;;;;3.33;3.03;;;22.60;30.90;;;;;;5065946;28;20453;-63
2022/04/19 10:41:59;;;;;;;3.20;3.00;;;22.90;31.30;;;;;;5066051;28;20964;-65
2022/04/19 10:44:28;;;;;;;3.77;3.40;;;23.10;30.70;;;;;;5065751;28;20508;-64
2022/04/19 10:47:07;;;;;;;4.30;3.60;;;23.80;30.70;;;;;;5066603;28;20796;-64
2022/04/19 10:50:00;;;;;;;12.13;4.30;;;24.10;30.20;;;;;;5068724;28;22571;-64
2022/04/19 10:52:40;;;;;;;4.40;4.00;;;24.50;30.00;;;;;;5064839;28;20448;-64
2022/04/19 10:55:07;;;;;;;4.40;3.90;;;24.30;30.10;;;;;;5069572;28;20505;-64
2022/04/19 10:58:09;;;;;;;4.00;3.60;;;23.80;30.30;;;;;;5068573;28;20526;-65
2022/04/19 11:00:34;;;;;;;4.20;3.80;;;24.20;30.50;;;;;;5066486;28;20453;-64
2022/04/19 11:03:05;;;;;;;5.20;4.20;;;24.90;30.30;;;;;;5069997;28;20531;-65
2022/04/19 11:05:43;;;;;;;3.67;3.37;;;24.90;30.40;;;;;;5066858;28;20191;-64
2022/04/19 11:08:24;;;;;;;4.73;4.00;;;24.00;30.00;;;;;;5070208;28;20434;-64
2022/04/19 11:10:56;;;;;;;4.20;3.50;;;23.80;31.10;;;;;;5067761;28;20468;-65
2022/04/19 11:13:31;;;;;;;4.10;3.80;;;24.40;30.20;;;;;;5070733;28;20650;-65
2022/04/19 11:16:03;;;;;;;4.23;3.83;;;24.50;30.50;;;;;;5066719;28;20434;-64
2022/04/19 11:18:34;;;;;;;5.10;4.23;;;24.20;31.30;;;;;;5067198;28;20426;-65
2022/04/19 11:21:01;;;;;;;4.50;4.10;;;23.70;31.50;;;;;;5069577;28;20559;-64
2022/04/19 11:23:29;;;;;;;4.33;3.93;;;23.00;32.00;;;;;;5065734;28;20473;-64
2022/04/19 11:25:56;;;;;;;5.00;4.60;;;22.50;32.60;;;;;;5065908;28;20452;-64
2022/04/19 11:28:23;;;;;;;5.03;4.50;;;22.50;33.00;;;;;;5070062;28;20443;-64
2022/04/19 11:30:55;;;;;;;5.93;3.87;;;22.40;33.40;;;;;;5068271;28;20463;-64
2022/04/19 11:33:26;;;;;;;4.60;3.63;;;22.70;33.00;;;;;;5069923;28;20520;-65
2022/04/19 11:36:02;;;;;;;3.57;3.27;;;21.90;33.30;;;;;;5066034;28;20438;-65
2022/04/19 11:38:30;;;;;;;5.27;4.70;;;21.90;33.40;;;;;;5070206;28;20431;-65
2022/04/19 11:46:44;;;;;;;4.83;3.67;;;22.30;31.60;;;;;;5066669;28;21224;-65
2022/04/19 11:49:30;;;;;;;4.80;3.93;;;22.60;31.50;;;;;;5068417;28;20439;-65
2022/04/19 11:52:02;;;;;;;5.37;4.60;;;22.70;32.50;;;;;;5068823;28;20446;-65
2022/04/19 11:54:32;;;;;;;3.70;3.40;;;22.40;32.10;;;;;;5065063;28;20493;-65
2022/04/19 11:57:04;;;;;;;4.17;3.77;;;22.80;32.70;;;;;;5070376;28;20750;-64
2022/04/19 11:59:35;;;;;;;4.03;3.63;;;23.10;32.20;;;;;;5067851;28;20451;-65
2022/04/19 12:02:02;;;;;;;3.60;3.30;;;22.70;31.80;;;;;;5068776;28;20516;-64
2022/04/19 12:04:28;;;;;;;5.63;4.70;;;22.30;32.50;;;;;;5070180;28;20465;-65
2022/04/19 12:06:59;;;;;;;4.57;3.97;;;21.90;33.30;;;;;;5069940;28;20443;-65
2022/04/19 12:09:26;;;;;;;4.40;4.00;;;21.00;33.60;;;;;;5065062;28;20458;-65
2022/04/19 12:11:53;;;;;;;4.83;3.97;;;21.70;34.20;;;;;;5068583;28;20431;-64
2022/04/19 12:14:29;;;;;;;4.43;4.00;;;21.60;34.10;;;;;;5069525;28;20459;-64
2022/04/19 12:16:59;;;;;;;6.03;4.30;;;21.20;34.50;;;;;;5067923;28;20469;-64
2022/04/19 12:19:33;;;;;;;4.63;4.13;;;20.80;34.20;;;;;;5065470;28;20179;-64
2022/04/19 12:22:00;;;;;;;4.32;3.92;;;20.60;35.40;;;;;;5069684;28;20438;-65
2022/04/19 12:24:28;;;;;;;4.60;4.07;;;20.60;35.60;;;;;;5068797;28;20350;-64
2022/04/19 12:27:07;;;;;;;5.03;4.30;;;20.80;35.80;;;;;;5067541;28;20562;-65
2022/04/19 12:29:37;;;;;;;4.50;4.10;;;20.70;36.20;;;;;;5069798;28;20212;-65
2022/04/19 12:32:04;;;;;;;7.38;4.47;;;20.70;34.90;;;;;;5067392;28;20183;-65
2022/04/19 12:34:38;;;;;;;5.38;4.88;;;20.70;34.50;;;;;;5070348;28;20189;-64
2022/04/19 12:37:22;;;;;;;4.60;3.88;;;21.00;35.50;;;;;;5068410;28;20189;-65
2022/04/19 12:40:01;;;;;;;4.15;3.53;;;20.60;35.30;;;;;;5069454;28;20196;-64
2022/04/19 12:42:27;;;;;;;5.00;3.97;;;20.40;34.80;;;;;;5069397;28;20184;-65
2022/04/19 12:45:02;;;;;;;5.50;4.97;;;20.40;34.90;;;;;;5068239;28;20200;-64
2022/04/19 12:47:28;;;;;;;6.50;4.40;;;20.40;35.60;;;;;;5057627;28;20242;-64
2022/04/19 12:49:55;;;;;;;5.10;4.40;;;20.30;35.50;;;;;;5065777;28;20220;-64
2022/04/19 12:52:32;;;;;;;5.07;4.57;;;20.50;35.90;;;;;;5068307;28;20181;-64
2022/04/19 12:55:01;;;;;;;5.85;4.45;;;20.50;36.20;;;;;;5064058;28;20204;-64
2022/04/19 12:57:27;;;;;;;5.47;4.40;;;20.60;36.40;;;;;;5067648;28;21295;-64
2022/04/19 12:59:53;;;;;;;5.67;4.70;;;20.60;35.80;;;;;;5060552;28;20241;-64
2022/04/19 13:02:20;;;;;;;4.50;4.10;;;20.00;36.10;;;;;;5068068;28;20240;-64
2022/04/19 13:04:46;;;;;;;5.15;4.10;;;20.50;34.80;;;;;;5068630;28;20205;-64
2022/04/19 13:12:41;;;;;;;5.25;4.50;;;20.40;35.70;;;;;;5061888;28;20200;-64
2022/04/19 13:15:07;;;;;;;5.65;4.40;;;20.30;37.10;;;;;;5065515;28;20181;-64
2022/04/19 13:17:36;;;;;;;4.97;4.47;;;20.20;37.00;;;;;;5061853;28;20191;-64
2022/04/19 13:20:02;;;;;;;4.50;3.90;;;20.20;36.90;;;;;;5068065;28;20612;-64
2022/04/19 13:22:28;;;;;;;4.40;4.00;;;20.30;36.40;;;;;;5067155;28;20191;-64
2022/04/19 13:24:54;;;;;;;4.50;4.10;;;20.40;36.50;;;;;;5064146;28;20733;-64
2022/04/19 13:27:20;;;;;;;6.40;4.20;;;20.30;36.30;;;;;;5065208;28;20223;-63
2022/04/19 13:29:46;;;;;;;5.70;3.87;;;20.20;36.20;;;;;;5064271;28;20817;-64
2022/04/19 13:32:12;;;;;;;4.90;4.10;;;20.30;36.50;;;;;;5060696;28;20794;-64